createdAt,value
2023-04-30T00:00:09.961Z,11.20
2023-04-30T00:02:37.174Z,11.10
2023-04-30T00:05:04.488Z,10.90
2023-04-30T00:07:32.300Z,11.10
2023-04-30T00:09:59.223Z,11.10
2023-04-30T00:12:25.988Z,11.10
2023-04-30T00:14:52.834Z,11.10
2023-04-30T00:17:19.691Z,11.10
2023-04-30T00:19:46.709Z,11.00
2023-04-30T00:22:13.989Z,11.00
2023-04-30T00:24:40.838Z,10.90
2023-04-30T00:27:07.715Z,11.00
2023-04-30T00:29:34.559Z,11.00
2023-04-30T00:32:01.580Z,10.80
2023-04-30T00:34:28.778Z,10.90
2023-04-30T00:36:55.829Z,10.80
2023-04-30T00:39:22.679Z,10.70
2023-04-30T00:41:49.520Z,10.80
2023-04-30T00:44:16.327Z,10.70
2023-04-30T00:46:43.197Z,10.70
2023-04-30T00:49:10.270Z,10.60
2023-04-30T00:51:40.777Z,10.60
2023-04-30T00:54:08.496Z,10.50
2023-04-30T00:56:36.006Z,10.50
2023-04-30T00:59:02.897Z,10.30
2023-04-30T01:01:30.110Z,10.30
2023-04-30T01:03:57.069Z,10.10
2023-04-30T01:06:26.854Z,10.00
2023-04-30T01:08:53.975Z,10.40
2023-04-30T01:11:34.112Z,10.20
2023-04-30T01:14:13.533Z,10.20
2023-04-30T01:16:47.213Z,10.40
2023-04-30T01:19:40.269Z,10.20
2023-04-30T01:22:14.946Z,10.30
2023-04-30T01:25:04.673Z,10.30
2023-04-30T01:27:56.625Z,10.30
2023-04-30T01:30:25.334Z,10.30
2023-04-30T01:32:53.118Z,10.30
2023-04-30T01:35:20.554Z,10.30
2023-04-30T01:38:11.213Z,10.20
2023-04-30T01:41:13.413Z,10.30
2023-04-30T01:43:56.741Z,10.10
2023-04-30T01:46:27.267Z,10.30
2023-04-30T01:49:10.948Z,10.20
2023-04-30T01:51:47.191Z,10.30
2023-04-30T01:54:34.306Z,10.20
2023-04-30T01:57:06.146Z,10.10
2023-04-30T01:59:35.598Z,10.20
2023-04-30T02:02:03.563Z,10.10
2023-04-30T02:04:30.966Z,10.10
2023-04-30T02:06:58.759Z,10.00
2023-04-30T02:09:25.711Z,10.10
2023-04-30T02:11:52.504Z,10.10
2023-04-30T02:14:19.350Z,10.10
2023-04-30T02:16:46.165Z,9.90
2023-04-30T02:19:12.967Z,10.00
2023-04-30T02:21:39.882Z,9.90
2023-04-30T02:24:07.223Z,9.90
2023-04-30T02:26:34.051Z,9.90
2023-04-30T02:29:00.996Z,9.80
2023-04-30T02:31:27.788Z,9.80
2023-04-30T02:33:55.298Z,9.70
2023-04-30T02:36:22.102Z,9.80
2023-04-30T02:38:49.016Z,9.80
2023-04-30T02:41:16.026Z,9.70
2023-04-30T02:43:42.759Z,10.10
2023-04-30T02:46:09.666Z,9.70
2023-04-30T02:48:36.519Z,9.60
2023-04-30T02:51:04.797Z,9.50
2023-04-30T02:53:31.555Z,9.50
2023-04-30T02:55:59.241Z,9.40
2023-04-30T02:58:26.746Z,9.50
2023-04-30T05:22:45.599Z,8.30
2023-04-30T05:25:12.463Z,8.40
2023-04-30T05:27:39.432Z,8.70
2023-04-30T05:30:06.942Z,8.90
2023-04-30T05:32:34.664Z,9.00
2023-04-30T05:35:01.667Z,9.30
2023-04-30T05:37:28.499Z,9.60
2023-04-30T05:39:55.587Z,9.80
2023-04-30T05:42:22.629Z,10.10
2023-04-30T05:44:49.920Z,10.50
2023-04-30T05:47:16.689Z,10.80
2023-04-30T05:49:43.664Z,11.20
2023-04-30T05:52:11.089Z,11.70
2023-04-30T05:54:37.847Z,12.00
2023-04-30T06:21:40.310Z,15.10
2023-04-30T06:24:07.060Z,15.30
2023-04-30T06:26:33.767Z,15.60
2023-04-30T06:29:01.041Z,15.80
2023-04-30T06:31:27.931Z,15.60
2023-04-30T06:33:54.762Z,15.60
2023-04-30T06:36:21.601Z,15.10
2023-04-30T06:38:48.670Z,15.10
2023-04-30T06:41:16.454Z,14.70
2023-04-30T06:43:44.863Z,14.70
2023-04-30T06:46:11.866Z,14.40
2023-04-30T06:48:38.750Z,14.50
2023-04-30T06:51:05.929Z,14.00
2023-04-30T06:53:32.679Z,14.50
2023-04-30T06:55:59.618Z,14.70
2023-04-30T06:58:26.406Z,14.90
2023-04-30T07:00:54.120Z,15.10
2023-04-30T07:03:21.667Z,15.10
2023-04-30T07:05:48.515Z,15.30
2023-04-30T07:08:15.404Z,15.40
2023-04-30T07:10:42.153Z,15.60
2023-04-30T07:13:08.948Z,16.10
2023-04-30T07:15:36.110Z,16.70
2023-04-30T07:18:04.123Z,16.80
2023-04-30T07:20:31.166Z,17.20
2023-04-30T07:22:58.557Z,17.80
2023-04-30T07:25:25.642Z,17.90
2023-04-30T07:27:53.873Z,17.90
2023-04-30T07:30:21.857Z,18.10
2023-04-30T07:32:50.370Z,18.00
2023-04-30T07:35:17.197Z,18.20
2023-04-30T07:37:44.067Z,18.30
2023-04-30T07:40:15.409Z,18.30
2023-04-30T07:42:48.456Z,18.50
2023-04-30T07:45:15.449Z,18.70
2023-04-30T07:47:42.344Z,19.00
2023-04-30T07:50:09.495Z,19.10
2023-04-30T07:52:36.320Z,19.30
2023-04-30T07:55:04.447Z,19.50
2023-04-30T07:57:31.498Z,19.50
2023-04-30T08:02:26.242Z,20.50
2023-04-30T08:04:53.093Z,20.40
2023-04-30T08:07:21.109Z,19.60
2023-04-30T08:09:47.894Z,19.40
2023-04-30T08:12:14.693Z,19.00
2023-04-30T08:14:41.487Z,18.30
2023-04-30T08:17:08.251Z,18.00
2023-04-30T08:19:35.058Z,17.80
2023-04-30T08:22:01.986Z,18.20
2023-04-30T08:24:28.839Z,18.50
2023-04-30T08:26:56.115Z,19.40
2023-04-30T08:29:23.004Z,19.20
2023-04-30T08:31:50.034Z,19.50
2023-04-30T08:34:17.049Z,19.00
2023-04-30T08:36:43.894Z,18.50
2023-04-30T08:39:11.077Z,18.20
2023-04-30T08:41:39.983Z,18.10
2023-04-30T08:44:08.544Z,17.80
2023-04-30T08:46:38.539Z,17.60
2023-04-30T08:49:05.554Z,17.30
2023-04-30T08:51:33.866Z,17.20
2023-04-30T08:54:00.802Z,16.80
2023-04-30T08:56:29.606Z,16.80
2023-04-30T08:58:56.411Z,16.70
2023-04-30T09:01:24.415Z,16.80
2023-04-30T09:03:51.436Z,16.70
2023-04-30T09:06:18.450Z,16.70
2023-04-30T09:08:47.182Z,17.10
2023-04-30T09:11:30.847Z,17.20
2023-04-30T09:13:59.397Z,17.40
2023-04-30T09:16:28.289Z,17.60
2023-04-30T09:18:56.353Z,17.50
2023-04-30T09:21:38.708Z,17.60
2023-04-30T09:24:06.135Z,18.00
2023-04-30T09:26:35.152Z,18.30
2023-04-30T09:29:07.734Z,18.80
2023-04-30T09:31:36.448Z,19.20
2023-04-30T09:34:04.319Z,18.90
2023-04-30T09:36:31.742Z,18.60
2023-04-30T09:39:17.401Z,18.30
2023-04-30T09:41:44.590Z,18.10
2023-04-30T09:44:28.412Z,17.90
2023-04-30T09:46:58.587Z,17.70
2023-04-30T09:49:26.745Z,17.60
2023-04-30T09:52:01.576Z,17.70
2023-04-30T09:54:30.647Z,17.80
2023-04-30T09:57:01.767Z,18.10
2023-04-30T09:59:31.660Z,18.00
2023-04-30T10:02:01.113Z,17.90
2023-04-30T10:04:34.473Z,17.90
2023-04-30T10:07:07.461Z,17.70
2023-04-30T10:09:41.004Z,17.00
2023-04-30T10:12:15.168Z,17.40
2023-04-30T10:14:52.076Z,17.60
2023-04-30T10:17:20.811Z,17.60
2023-04-30T10:19:52.417Z,17.60
2023-04-30T10:22:20.436Z,17.20
2023-04-30T10:24:48.614Z,17.40
2023-04-30T10:27:16.017Z,17.30
2023-04-30T10:29:43.400Z,17.30
2023-04-30T10:32:13.238Z,17.30
2023-04-30T10:35:06.942Z,17.40
2023-04-30T10:37:40.187Z,17.40
2023-04-30T10:40:09.890Z,17.30
2023-04-30T10:42:37.068Z,17.20
2023-04-30T10:45:04.244Z,17.30
2023-04-30T10:47:31.633Z,17.40
2023-04-30T10:50:09.029Z,17.50
2023-04-30T10:52:38.498Z,17.50
2023-04-30T10:55:07.637Z,17.50
2023-04-30T10:57:43.335Z,17.40
2023-04-30T11:00:10.560Z,17.20
2023-04-30T11:02:43.955Z,17.10
2023-04-30T11:05:12.935Z,16.90
2023-04-30T11:07:49.316Z,17.00
2023-04-30T11:10:20.702Z,17.00
2023-04-30T11:12:49.286Z,17.00
2023-04-30T11:15:18.616Z,17.10
2023-04-30T11:17:46.358Z,17.20
2023-04-30T11:20:15.305Z,17.10
2023-04-30T11:22:42.368Z,17.40
2023-04-30T11:25:10.633Z,17.40
2023-04-30T11:27:40.160Z,18.20
2023-04-30T11:30:13.691Z,18.30
2023-04-30T11:32:41.866Z,18.10
2023-04-30T11:35:10.097Z,18.50
2023-04-30T11:37:39.240Z,18.40
2023-04-30T11:40:08.728Z,18.40
2023-04-30T11:42:35.752Z,18.60
2023-04-30T11:45:05.099Z,18.80
2023-04-30T11:47:48.451Z,18.90
2023-04-30T11:50:17.539Z,19.50
2023-04-30T11:52:50.564Z,19.80
2023-04-30T11:55:19.621Z,19.60
2023-04-30T11:57:49.268Z,19.40
2023-04-30T12:00:18.657Z,19.50
2023-04-30T12:02:50.323Z,19.80
2023-04-30T12:05:20.583Z,19.90
2023-04-30T12:07:51.345Z,19.70
2023-04-30T12:10:20.201Z,19.70
2023-04-30T12:12:48.883Z,19.60
2023-04-30T12:15:18.684Z,19.30
2023-04-30T12:17:50.212Z,19.30
2023-04-30T12:20:17.211Z,19.10
2023-04-30T12:22:44.935Z,19.40
2023-04-30T12:25:14.362Z,20.10
2023-04-30T12:27:42.574Z,20.70
2023-04-30T12:30:10.176Z,20.50
2023-04-30T12:32:39.799Z,20.50
2023-04-30T12:35:06.993Z,19.90
2023-04-30T12:37:33.939Z,19.90
2023-04-30T12:40:01.066Z,20.00
2023-04-30T12:42:36.082Z,20.10
2023-04-30T12:45:04.002Z,20.50
2023-04-30T12:47:31.156Z,20.90
2023-04-30T12:49:58.781Z,21.00
2023-04-30T12:52:27.030Z,20.60
2023-04-30T12:54:55.215Z,20.40
2023-04-30T12:57:23.093Z,20.10
2023-04-30T12:59:49.962Z,20.00
2023-04-30T13:02:16.871Z,20.20
2023-04-30T13:04:44.420Z,20.60
2023-04-30T13:07:11.647Z,21.10
2023-04-30T13:09:38.710Z,21.10
2023-04-30T13:12:06.582Z,20.70
2023-04-30T13:14:35.117Z,20.70
2023-04-30T13:17:05.129Z,20.60
2023-04-30T13:19:32.058Z,20.40
2023-04-30T13:22:01.427Z,20.40
2023-04-30T13:24:28.360Z,20.40
2023-04-30T13:26:55.187Z,20.30
2023-04-30T13:29:25.065Z,20.30
2023-04-30T13:31:51.991Z,20.30
2023-04-30T13:34:18.850Z,20.40
2023-04-30T13:36:46.841Z,20.10
2023-04-30T13:39:13.769Z,19.90
2023-04-30T13:41:40.669Z,19.90
2023-04-30T13:44:07.485Z,19.80
2023-04-30T13:46:34.385Z,19.80
2023-04-30T13:49:01.238Z,19.90
2023-04-30T13:51:28.888Z,20.00
2023-04-30T13:53:55.754Z,20.20
2023-04-30T13:56:22.631Z,21.10
2023-04-30T13:58:49.573Z,21.50
2023-04-30T14:01:16.415Z,21.30
2023-04-30T14:03:43.357Z,21.00
2023-04-30T14:06:10.511Z,20.60
2023-04-30T14:08:37.424Z,20.40
2023-04-30T14:11:04.489Z,20.30
2023-04-30T14:13:31.310Z,19.90
2023-04-30T14:15:58.243Z,19.50
2023-04-30T14:18:25.452Z,19.50
2023-04-30T14:20:52.341Z,19.40
2023-04-30T14:23:19.089Z,19.50
2023-04-30T14:25:45.904Z,19.60
2023-04-30T14:28:13.113Z,19.70
2023-04-30T14:30:39.968Z,19.60
2023-04-30T14:33:06.849Z,19.70
2023-04-30T14:35:33.912Z,19.70
2023-04-30T14:38:00.764Z,19.60
2023-04-30T14:40:27.679Z,19.30
2023-04-30T14:42:54.586Z,19.20
2023-04-30T14:45:21.370Z,19.30
2023-04-30T14:47:49.202Z,19.30
2023-04-30T14:50:16.382Z,19.40
2023-04-30T14:52:43.280Z,19.30
2023-04-30T14:55:11.097Z,19.30
2023-04-30T14:57:37.912Z,19.20
2023-04-30T15:00:06.754Z,19.40
2023-04-30T15:02:33.726Z,19.30
2023-04-30T15:05:00.795Z,19.40
2023-04-30T15:07:27.892Z,19.40
2023-04-30T15:09:55.565Z,19.40
2023-04-30T15:12:22.899Z,19.50
2023-04-30T15:14:49.751Z,19.40
2023-04-30T15:17:16.621Z,19.20
2023-04-30T15:19:43.678Z,19.10
2023-04-30T15:22:10.545Z,19.10
2023-04-30T15:24:37.418Z,19.20
2023-04-30T15:27:04.471Z,18.90
2023-04-30T15:29:31.526Z,19.10
2023-04-30T15:31:59.675Z,19.20
2023-04-30T15:34:26.649Z,19.20
2023-04-30T15:36:53.477Z,19.30
2023-04-30T15:39:21.801Z,19.30
2023-04-30T15:41:48.705Z,19.20
2023-04-30T15:44:15.497Z,19.20
2023-04-30T15:46:42.543Z,19.00
2023-04-30T15:49:09.561Z,18.90
2023-04-30T15:51:37.533Z,18.90
2023-04-30T15:54:07.295Z,18.90
2023-04-30T15:56:35.799Z,18.70
2023-04-30T15:59:06.241Z,18.60
2023-04-30T16:01:33.716Z,18.50
2023-04-30T16:04:01.448Z,18.40
2023-04-30T16:06:29.976Z,18.30
2023-04-30T16:08:56.975Z,18.10
2023-04-30T16:11:24.675Z,17.90
2023-04-30T16:13:52.094Z,17.80
2023-04-30T16:16:19.063Z,17.60
2023-04-30T16:18:46.108Z,17.60
2023-04-30T16:21:13.330Z,17.50
2023-04-30T16:23:40.331Z,17.50
2023-04-30T16:26:07.156Z,17.40
2023-04-30T16:28:35.317Z,17.50
2023-04-30T16:31:02.135Z,17.50
2023-04-30T16:33:28.981Z,17.20
2023-04-30T16:35:56.227Z,17.20
2023-04-30T16:38:23.120Z,17.20
2023-04-30T16:40:50.871Z,17.30
2023-04-30T16:43:17.854Z,17.10
2023-04-30T16:45:44.904Z,17.10
2023-04-30T16:48:11.916Z,17.00
2023-04-30T16:50:38.978Z,16.90
2023-04-30T16:53:06.343Z,16.90
2023-04-30T16:55:33.380Z,16.90
2023-04-30T16:58:00.336Z,16.80
2023-04-30T17:00:27.084Z,16.70
2023-04-30T17:02:54.169Z,16.70
2023-04-30T17:05:21.368Z,16.70
2023-04-30T17:07:49.458Z,16.60
2023-04-30T17:10:18.879Z,16.50
2023-04-30T17:12:46.012Z,16.40
2023-04-30T17:15:12.978Z,16.30
2023-04-30T17:17:39.882Z,16.30
2023-04-30T17:20:07.200Z,16.30
2023-04-30T17:22:34.011Z,16.30
2023-04-30T17:25:02.118Z,16.10
2023-04-30T17:27:29.118Z,16.10
2023-04-30T17:29:56.739Z,16.00
2023-04-30T17:32:24.872Z,15.90
2023-04-30T17:34:52.141Z,15.90
2023-04-30T17:37:19.001Z,15.80
2023-04-30T17:39:47.346Z,15.80
2023-04-30T17:42:14.205Z,15.60
2023-04-30T17:44:41.135Z,15.80
2023-04-30T17:47:07.940Z,15.60
2023-04-30T17:49:34.774Z,15.60
2023-04-30T17:52:01.826Z,15.40
2023-04-30T17:54:31.055Z,15.30
2023-04-30T17:56:59.469Z,15.30
2023-04-30T17:59:29.623Z,15.10
2023-04-30T18:01:57.408Z,15.10
2023-04-30T18:04:25.727Z,15.10
2023-04-30T18:06:53.074Z,14.70
2023-04-30T18:09:21.838Z,14.60
2023-04-30T18:11:50.673Z,14.70
2023-04-30T18:14:17.651Z,14.60
2023-04-30T18:16:50.061Z,14.40
2023-04-30T18:19:18.777Z,14.60
2023-04-30T18:21:46.490Z,14.70
2023-04-30T18:24:13.424Z,14.30
2023-04-30T18:26:40.456Z,14.10
2023-04-30T18:29:08.463Z,14.00
2023-04-30T18:31:37.470Z,13.90
2023-04-30T18:34:04.793Z,13.80
2023-04-30T18:36:32.816Z,13.70
2023-04-30T18:38:59.703Z,13.60
2023-04-30T18:41:27.266Z,13.40
2023-04-30T18:43:54.113Z,13.30
2023-04-30T18:46:23.011Z,13.20
2023-04-30T18:48:49.981Z,13.10
2023-04-30T18:51:17.022Z,13.00
2023-04-30T18:53:45.515Z,12.80
2023-04-30T18:56:12.623Z,12.80
2023-04-30T18:58:39.570Z,12.90
2023-04-30T19:01:08.486Z,12.60
2023-04-30T19:03:35.546Z,12.60
2023-04-30T19:06:02.922Z,12.60
2023-04-30T19:08:29.951Z,12.40
2023-04-30T19:10:56.940Z,12.40
2023-04-30T19:13:23.905Z,12.40
2023-04-30T19:15:52.945Z,12.30
2023-04-30T19:18:21.774Z,12.30
2023-04-30T19:20:58.078Z,12.10
2023-04-30T20:27:25.641Z,11.10
2023-04-30T20:29:54.665Z,10.90
2023-04-30T20:32:22.009Z,10.80
2023-04-30T20:34:48.900Z,10.70
2023-04-30T20:37:16.382Z,10.70
2023-04-30T21:26:28.612Z,9.80
2023-04-30T21:28:55.839Z,9.70
2023-04-30T21:31:23.871Z,9.50
2023-04-30T21:33:50.964Z,9.40
2023-04-30T21:36:18.197Z,9.30
2023-04-30T21:38:45.089Z,9.20
2023-04-30T21:41:14.419Z,9.20
2023-04-30T21:43:42.626Z,9.20
2023-04-30T21:46:10.318Z,9.10
2023-04-30T21:48:40.649Z,9.10
2023-04-30T21:51:16.867Z,9.00
2023-04-30T21:53:51.573Z,9.00
2023-04-30T21:56:19.730Z,9.00
2023-04-30T21:58:48.389Z,8.90
2023-04-30T22:01:15.409Z,8.90
2023-04-30T22:03:46.571Z,8.80
2023-04-30T22:06:13.427Z,8.80
2023-04-30T22:08:40.320Z,8.80
2023-04-30T22:11:07.160Z,8.80
2023-04-30T22:13:34.034Z,8.60
2023-04-30T22:16:01.373Z,8.70
2023-04-30T22:18:28.316Z,8.90
2023-04-30T22:20:55.167Z,8.90
2023-04-30T22:23:22.094Z,8.80
2023-04-30T22:25:49.266Z,8.80
2023-04-30T22:28:17.964Z,8.60
2023-04-30T22:30:45.225Z,8.80
2023-04-30T22:33:12.184Z,8.80
2023-04-30T22:35:39.346Z,8.80
2023-04-30T22:38:07.688Z,8.80
2023-04-30T22:40:38.395Z,8.70
2023-04-30T22:43:06.203Z,8.60
2023-04-30T22:45:36.997Z,8.50
2023-04-30T22:48:09.762Z,8.60
2023-04-30T22:50:36.997Z,8.60
2023-04-30T22:53:03.922Z,8.90
2023-04-30T22:55:31.664Z,8.50
2023-04-30T22:58:01.584Z,8.50
2023-04-30T23:00:29.115Z,8.50
2023-04-30T23:02:55.997Z,8.50
2023-04-30T23:05:22.861Z,8.50
2023-04-30T23:07:49.828Z,8.50
2023-04-30T23:10:17.436Z,8.40
2023-04-30T23:12:44.282Z,8.50
2023-04-30T23:15:11.569Z,8.60
2023-04-30T23:17:38.637Z,8.50
2023-04-30T23:20:06.285Z,8.50
2023-04-30T23:22:33.285Z,8.40
2023-04-30T23:25:00.216Z,8.50
2023-04-30T23:27:28.325Z,8.40
2023-04-30T23:29:56.194Z,8.50
2023-04-30T23:32:23.766Z,8.50
2023-04-30T23:34:50.679Z,8.50
2023-04-30T23:37:17.732Z,8.30
2023-04-30T23:39:44.578Z,8.50
2023-04-30T23:42:11.523Z,8.50
2023-04-30T23:44:38.358Z,8.40
2023-04-30T23:47:06.662Z,8.50
2023-04-30T23:49:33.601Z,8.50
2023-04-30T23:52:00.430Z,8.50
2023-04-30T23:54:27.224Z,8.50
2023-04-30T23:56:54.376Z,8.60
2023-04-30T23:59:23.516Z,8.70
